Time,TemperatureF,DewpointF,PressureIn,WindDirection,WindDirectionDegrees,WindSpeedMPH,WindSpeedGustMPH,Humidity,HourlyPrecipIn,Conditions,Clouds,dailyrainin,SolarRadiationWatts/m^2,SoftwareType,DateUTC
2013-10-28 12:43:00,57.0,35.0,-100.00,SE,140,3.0,8.0,43,0.00,,,0.00,495.000000,,2013-10-28 16:43:00,
2013-10-28 12:53:00,57.0,35.0,-100.00,SE,140,3.0,8.0,43,0.00,,,0.00,495.000000,,2013-10-28 16:53:00,
2013-10-28 13:02:00,57.0,35.0,-100.00,SE,140,3.0,8.0,43,0.00,,,0.00,495.000000,,2013-10-28 17:02:00,
2013-10-28 13:42:00,60.0,34.0,-100.00,SE,135,3.0,10.0,37,0.00,,,0.00,599.000000,,2013-10-28 17:42:00,
2013-10-28 13:52:00,60.0,34.0,-100.00,SE,135,3.0,10.0,37,0.00,,,0.00,599.000000,,2013-10-28 17:52:00,
2013-10-28 14:02:00,60.0,34.0,-100.00,SE,135,3.0,10.0,37,0.00,,,0.00,599.000000,,2013-10-28 18:02:00,
2013-10-28 14:42:00,63.0,33.0,-100.00,SE,144,1.0,8.0,33,0.00,,,0.00,617.000000,,2013-10-28 18:42:00,
2013-10-28 14:52:00,63.0,33.0,-100.00,SE,144,1.0,8.0,33,0.00,,,0.00,617.000000,,2013-10-28 18:52:00,
2013-10-28 15:02:00,63.0,33.0,-100.00,SE,144,1.0,8.0,33,0.00,,,0.00,617.000000,,2013-10-28 19:02:00,
2013-10-28 15:42:00,64.0,33.0,-100.00,NE,48,2.0,7.0,31,0.00,,,0.00,571.000000,,2013-10-28 19:42:00,
2013-10-28 15:53:00,64.0,33.0,-100.00,NE,48,2.0,7.0,31,0.00,,,0.00,571.000000,,2013-10-28 19:53:00,
2013-10-28 16:02:00,64.0,33.0,-100.00,NE,48,2.0,7.0,31,0.00,,,0.00,571.000000,,2013-10-28 20:02:00,
2013-10-28 16:42:00,65.0,31.0,-100.00,West,281,3.0,7.0,28,0.00,,,0.00,469.000000,,2013-10-28 20:42:00,
2013-10-28 16:52:00,65.0,31.0,-100.00,West,281,3.0,7.0,28,0.00,,,0.00,469.000000,,2013-10-28 20:52:00,
2013-10-28 17:02:00,65.0,31.0,-100.00,West,281,3.0,7.0,28,0.00,,,0.00,469.000000,,2013-10-28 21:02:00,
2013-10-28 17:43:00,65.0,32.0,-100.00,East,91,1.0,4.0,29,0.00,,,0.00,286.000000,,2013-10-28 21:43:00,
2013-10-28 17:54:00,65.0,32.0,-100.00,East,91,1.0,4.0,29,0.00,,,0.00,286.000000,,2013-10-28 21:54:00,
2013-10-28 18:04:00,65.0,32.0,-100.00,East,91,1.0,4.0,29,0.00,,,0.00,286.000000,,2013-10-28 22:04:00,
2013-10-28 18:43:00,60.0,32.0,-100.00,NNE,31,0.0,4.0,34,0.00,,,0.00,139.000000,,2013-10-28 22:43:00,
2013-10-28 18:53:00,60.0,32.0,-100.00,NNE,31,0.0,4.0,34,0.00,,,0.00,139.000000,,2013-10-28 22:53:00,
2013-10-28 19:03:00,60.0,32.0,-100.00,NNE,31,0.0,4.0,34,0.00,,,0.00,139.000000,,2013-10-28 23:03:00,
2013-10-28 21:42:00,50.0,31.0,-100.00,SSE,152,0.0,1.0,48,0.00,,,-99.99,0.000000,,2013-10-29 01:42:00,
2013-10-28 21:53:00,50.0,31.0,-100.00,SSE,152,0.0,1.0,48,0.00,,,-99.99,0.000000,,2013-10-29 01:53:00,
2013-10-28 22:02:00,50.0,31.0,-100.00,SSE,152,0.0,1.0,48,0.00,,,-99.99,0.000000,,2013-10-29 02:02:00,
2013-10-28 22:44:00,49.0,32.0,-100.00,SSE,167,0.0,1.0,51,-99.99,,,0.00,0.000000,,2013-10-29 02:44:00,
2013-10-28 23:40:00,-999.0,-99.9,-100.00,SE,139,0.0,2.0,46,-99.99,,,0.00,0.000000,,2013-10-29 03:40:00,